createdAt,value
2019-04-14T00:00:27.259Z,3.70
2019-04-14T00:03:02.333Z,3.70
2019-04-14T00:05:35.926Z,3.70
2019-04-14T00:08:11.044Z,3.70
2019-04-14T00:10:44.292Z,3.70
2019-04-14T00:13:18.012Z,3.70
2019-04-14T00:15:53.193Z,3.60
2019-04-14T00:18:25.569Z,3.60
2019-04-14T00:20:59.870Z,3.60
2019-04-14T00:23:34.576Z,3.50
2019-04-14T00:26:09.418Z,3.40
2019-04-14T00:28:42.620Z,3.40
2019-04-14T00:31:16.029Z,3.40
2019-04-14T00:33:50.068Z,3.50
2019-04-14T00:36:26.106Z,3.50
2019-04-14T00:38:59.510Z,3.40
2019-04-14T00:41:43.614Z,3.40
2019-04-14T00:44:10.952Z,3.40
2019-04-14T00:46:51.828Z,3.50
2019-04-14T00:49:24.797Z,3.40
2019-04-14T00:51:57.799Z,3.50
2019-04-14T00:54:30.968Z,3.50
2019-04-14T00:57:03.768Z,3.50
2019-04-14T00:59:37.612Z,3.60
2019-04-14T01:02:10.929Z,3.50
2019-04-14T01:04:44.788Z,3.50
2019-04-14T01:07:17.908Z,3.50
2019-04-14T01:09:51.146Z,3.50
2019-04-14T01:12:25.608Z,3.50
2019-04-14T01:14:59.190Z,3.40
2019-04-14T01:17:33.086Z,3.40
2019-04-14T01:20:06.328Z,3.40
2019-04-14T01:22:42.329Z,3.40
2019-04-14T01:25:17.048Z,3.40
2019-04-14T01:27:51.493Z,3.40
2019-04-14T01:30:26.276Z,3.40
2019-04-14T01:33:00.827Z,3.40
2019-04-14T01:35:34.329Z,3.50
2019-04-14T01:38:08.408Z,3.70
2019-04-14T01:40:42.425Z,3.80
2019-04-14T01:43:16.737Z,3.90
2019-04-14T01:46:02.408Z,3.90
2019-04-14T01:48:25.773Z,4.00
2019-04-14T01:51:09.315Z,3.90
2019-04-14T01:53:46.852Z,3.90
2019-04-14T01:56:20.883Z,3.90
2019-04-14T01:59:02.194Z,3.60
2019-04-14T02:01:44.065Z,3.80
2019-04-14T02:04:18.120Z,3.80
2019-04-14T02:06:52.625Z,3.90
2019-04-14T02:09:27.208Z,4.00
2019-04-14T02:12:01.423Z,3.80
2019-04-14T02:14:34.788Z,3.90
2019-04-14T02:17:09.355Z,3.90
2019-04-14T02:19:43.866Z,4.00
2019-04-14T02:22:18.142Z,4.00
2019-04-14T02:24:52.684Z,3.90
2019-04-14T02:27:27.414Z,3.90
2019-04-14T02:30:03.572Z,3.90
2019-04-14T02:33:07.310Z,3.90
2019-04-14T02:35:44.862Z,3.90
2019-04-14T02:40:58.004Z,3.80
2019-04-14T02:43:37.661Z,3.90
2019-04-14T02:45:57.820Z,3.90
2019-04-14T02:53:44.512Z,3.90
2019-04-14T02:56:22.302Z,3.80
2019-04-14T02:58:53.605Z,3.60
2019-04-14T03:04:01.588Z,3.80
2019-04-14T03:06:33.523Z,3.70
2019-04-14T03:11:48.997Z,4.00
2019-04-14T03:14:27.671Z,3.90
2019-04-14T03:17:07.584Z,4.00
2019-04-14T03:19:59.494Z,3.90
2019-04-14T03:22:28.926Z,4.00
2019-04-14T03:24:47.588Z,4.10
2019-04-14T03:38:13.317Z,4.00
2019-04-14T03:43:18.767Z,4.00
2019-04-14T03:45:53.880Z,4.00
2019-04-14T03:48:42.819Z,4.00
2019-04-14T03:51:06.909Z,3.70
2019-04-14T03:53:37.742Z,3.50
2019-04-14T03:55:49.410Z,3.50
2019-04-14T03:58:18.118Z,3.60
2019-04-14T04:00:53.317Z,3.80
2019-04-14T04:03:26.437Z,3.80
2019-04-14T04:06:00.779Z,3.90
2019-04-14T04:08:33.851Z,4.00
2019-04-14T04:11:06.781Z,3.90
2019-04-14T04:13:41.206Z,3.90
2019-04-14T04:16:17.957Z,3.90
2019-04-14T04:19:00.852Z,3.80
2019-04-14T04:21:29.037Z,3.70
2019-04-14T04:24:04.307Z,3.70
2019-04-14T04:26:39.349Z,3.80
2019-04-14T04:29:13.818Z,3.90
2019-04-14T04:31:48.540Z,3.90
2019-04-14T04:34:23.069Z,3.90
2019-04-14T04:37:01.802Z,4.00
2019-04-14T04:39:41.510Z,4.00
2019-04-14T04:42:15.392Z,4.00
2019-04-14T04:44:48.951Z,3.90
2019-04-14T04:47:23.035Z,4.10
2019-04-14T04:49:57.511Z,4.10
2019-04-14T04:52:30.891Z,4.20
2019-04-14T04:55:04.619Z,4.10
2019-04-14T04:57:39.465Z,4.10
2019-04-14T05:00:13.452Z,4.10
2019-04-14T05:02:48.394Z,4.00
2019-04-14T05:05:21.617Z,4.00
2019-04-14T05:07:55.463Z,4.10
2019-04-14T05:10:30.662Z,4.20
2019-04-14T05:13:05.691Z,4.10
2019-04-14T05:15:44.581Z,4.10
2019-04-14T05:18:19.988Z,4.20
2019-04-14T05:20:55.224Z,4.10
2019-04-14T05:23:29.931Z,4.10
2019-04-14T05:26:03.027Z,4.00
2019-04-14T05:28:37.324Z,4.10
2019-04-14T05:31:10.650Z,4.10
2019-04-14T05:33:46.866Z,4.10
2019-04-14T05:36:19.548Z,4.20
2019-04-14T05:38:53.968Z,4.20
2019-04-14T05:41:28.681Z,4.20
2019-04-14T05:44:05.156Z,4.30
2019-04-14T05:46:38.102Z,4.20
2019-04-14T05:49:24.524Z,4.40
2019-04-14T05:51:45.990Z,4.40
2019-04-14T05:54:18.943Z,4.40
2019-04-14T05:56:53.671Z,4.10
2019-04-14T05:59:26.997Z,4.00
2019-04-14T06:02:00.188Z,4.20
2019-04-14T06:04:33.890Z,4.40
2019-04-14T06:07:06.788Z,4.40
2019-04-14T06:09:39.897Z,4.40
2019-04-14T06:12:12.797Z,4.50
2019-04-14T06:14:45.810Z,4.50
2019-04-14T06:17:19.318Z,4.40
2019-04-14T06:19:52.889Z,4.40
2019-04-14T06:22:26.002Z,4.50
2019-04-14T06:24:59.511Z,4.60
2019-04-14T06:27:32.436Z,4.50
2019-04-14T06:30:07.436Z,4.50
2019-04-14T06:32:42.131Z,4.50
2019-04-14T06:35:22.872Z,4.60
2019-04-14T06:37:57.354Z,4.70
2019-04-14T06:40:31.993Z,4.60
2019-04-14T06:43:05.270Z,4.70
2019-04-14T06:45:38.390Z,4.70
2019-04-14T06:48:11.369Z,4.70
2019-04-14T06:50:46.522Z,4.70
2019-04-14T06:53:19.681Z,4.70
2019-04-14T06:55:54.937Z,4.80
2019-04-14T06:58:26.856Z,4.80
2019-04-14T07:00:59.733Z,4.80
2019-04-14T07:03:32.457Z,4.80
2019-04-14T07:06:05.223Z,4.70
2019-04-14T07:08:38.394Z,4.70
2019-04-14T07:11:11.441Z,4.80
2019-04-14T07:13:48.191Z,4.90
2019-04-14T07:16:18.948Z,4.90
2019-04-14T07:18:51.857Z,5.00
2019-04-14T07:21:24.852Z,5.00
2019-04-14T07:23:58.896Z,5.00
2019-04-14T07:26:31.829Z,5.00
2019-04-14T07:29:06.451Z,5.10
2019-04-14T07:31:43.750Z,5.10
2019-04-14T07:34:16.757Z,5.20
2019-04-14T07:36:51.291Z,5.30
2019-04-14T07:39:31.928Z,5.40
2019-04-14T07:42:21.668Z,5.40
2019-04-14T07:45:04.775Z,5.50
2019-04-14T07:47:42.314Z,5.40
2019-04-14T07:50:18.514Z,5.30
2019-04-14T07:52:57.110Z,5.30
2019-04-14T07:55:45.297Z,5.20
2019-04-14T07:58:36.200Z,5.30
2019-04-14T08:01:16.573Z,5.40
2019-04-14T08:04:06.953Z,5.40
2019-04-14T08:06:39.945Z,5.40
2019-04-14T08:09:12.778Z,5.40
2019-04-14T08:11:45.620Z,5.40
2019-04-14T08:14:19.391Z,5.30
2019-04-14T08:16:52.492Z,5.20
2019-04-14T08:19:25.429Z,5.20
2019-04-14T08:21:58.470Z,5.20
2019-04-14T08:24:31.375Z,5.20
2019-04-14T08:27:04.224Z,5.30
2019-04-14T08:29:37.231Z,5.50
2019-04-14T08:32:10.168Z,5.50
2019-04-14T08:34:43.089Z,5.30
2019-04-14T08:37:15.988Z,5.40
2019-04-14T08:39:49.048Z,5.40
2019-04-14T08:42:24.489Z,5.30
2019-04-14T08:45:00.689Z,5.40
2019-04-14T08:47:38.529Z,5.50
2019-04-14T08:50:39.366Z,5.50
2019-04-14T08:53:11.090Z,5.50
2019-04-14T08:55:56.149Z,5.50
2019-04-14T08:58:30.450Z,5.50
2019-04-14T09:01:07.583Z,5.60
2019-04-14T09:04:00.284Z,5.50
2019-04-14T09:06:34.789Z,5.50
2019-04-14T09:09:16.630Z,5.70
2019-04-14T09:11:54.529Z,5.70
2019-04-14T09:14:27.509Z,5.70
2019-04-14T09:17:00.484Z,5.60
2019-04-14T09:19:33.725Z,5.60
2019-04-14T09:22:06.649Z,5.60
2019-04-14T09:24:39.689Z,5.60
2019-04-14T09:27:12.649Z,5.60
2019-04-14T09:29:45.553Z,5.80
2019-04-14T09:32:20.829Z,5.80
2019-04-14T09:34:53.809Z,5.80
2019-04-14T09:37:26.809Z,5.70
2019-04-14T09:39:59.869Z,5.80
2019-04-14T09:42:32.950Z,5.80
2019-04-14T09:45:05.835Z,5.70
2019-04-14T09:47:38.770Z,5.90
2019-04-14T09:50:13.286Z,5.90
2019-04-14T09:52:47.071Z,5.90
2019-04-14T09:55:19.986Z,5.90
2019-04-14T09:57:52.988Z,5.70
2019-04-14T10:00:26.250Z,5.90
2019-04-14T10:02:59.911Z,6.00
2019-04-14T10:05:32.890Z,6.00
2019-04-14T10:08:06.569Z,5.90
2019-04-14T10:10:39.625Z,5.90
2019-04-14T10:13:13.219Z,5.70
2019-04-14T10:15:46.549Z,5.80
2019-04-14T10:18:19.508Z,5.90
2019-04-14T10:20:53.116Z,6.00
2019-04-14T10:23:26.114Z,5.90
2019-04-14T10:25:59.069Z,6.10
2019-04-14T10:28:32.037Z,6.10
2019-04-14T10:31:04.968Z,6.00
2019-04-14T10:33:37.949Z,6.10
2019-04-14T10:36:11.649Z,6.30
2019-04-14T10:38:44.723Z,6.20
2019-04-14T10:41:17.625Z,6.20
2019-04-14T10:43:51.130Z,6.20
2019-04-14T10:46:23.989Z,6.10
2019-04-14T10:48:56.849Z,6.10
2019-04-14T10:51:33.732Z,6.20
2019-04-14T10:54:04.730Z,6.00
2019-04-14T10:56:37.709Z,6.00
2019-04-14T10:59:10.569Z,6.20
2019-04-14T11:01:43.672Z,6.40
2019-04-14T11:04:16.588Z,6.30
2019-04-14T11:07:03.328Z,6.00
2019-04-14T11:09:36.949Z,6.00
2019-04-14T11:12:12.268Z,5.90
2019-04-14T11:14:45.117Z,5.90
2019-04-14T11:17:19.018Z,5.90
2019-04-14T11:19:52.310Z,6.10
2019-04-14T11:22:26.229Z,6.10
2019-04-14T11:25:01.002Z,5.90
2019-04-14T11:27:34.070Z,5.90
2019-04-14T11:30:08.545Z,5.90
2019-04-14T11:32:41.028Z,5.80
2019-04-14T11:35:16.695Z,5.70
2019-04-14T11:38:08.553Z,5.90
2019-04-14T11:40:49.190Z,6.00
2019-04-14T11:43:22.009Z,6.00
2019-04-14T11:45:55.450Z,6.00
2019-04-14T11:48:30.356Z,5.90
2019-04-14T11:51:03.231Z,5.90
2019-04-14T11:53:36.369Z,6.00
2019-04-14T11:56:09.669Z,5.90
2019-04-14T11:58:42.948Z,5.80
2019-04-14T12:01:20.316Z,5.80
2019-04-14T12:03:57.749Z,6.00
2019-04-14T12:06:47.630Z,6.00
2019-04-14T12:09:22.350Z,5.90
2019-04-14T12:11:56.470Z,5.90
2019-04-14T12:14:29.409Z,5.90
2019-04-14T12:17:02.908Z,5.80
2019-04-14T12:19:35.737Z,5.80
2019-04-14T12:22:09.112Z,5.80
2019-04-14T12:24:42.809Z,5.70
2019-04-14T12:27:17.671Z,5.70
2019-04-14T12:29:52.186Z,5.70
2019-04-14T12:32:25.591Z,5.70
2019-04-14T12:34:58.610Z,5.60
2019-04-14T12:37:32.468Z,5.60
2019-04-14T12:40:05.429Z,5.60
2019-04-14T12:42:40.008Z,5.60
2019-04-14T12:45:31.268Z,5.60
2019-04-14T12:48:04.098Z,5.70
2019-04-14T12:50:38.671Z,5.70
2019-04-14T12:53:11.591Z,5.70
2019-04-14T12:55:44.929Z,5.70
2019-04-14T12:58:19.476Z,5.80
2019-04-14T13:00:54.149Z,5.80
2019-04-14T13:03:27.469Z,5.90
2019-04-14T13:06:00.968Z,5.90
2019-04-14T13:08:34.129Z,5.90
2019-04-14T13:11:08.449Z,6.00
2019-04-14T13:13:41.408Z,6.00
2019-04-14T13:16:14.650Z,6.00
2019-04-14T13:18:47.457Z,5.90
2019-04-14T13:21:20.569Z,6.10
2019-04-14T13:23:53.430Z,6.20
2019-04-14T13:26:26.448Z,6.20
2019-04-14T13:28:59.507Z,6.30
2019-04-14T13:31:32.589Z,6.10
2019-04-14T13:34:05.950Z,6.10
2019-04-14T13:36:39.051Z,6.10
2019-04-14T13:39:12.797Z,6.00
2019-04-14T13:41:46.155Z,6.10
2019-04-14T13:44:19.179Z,6.10
2019-04-14T13:46:52.170Z,6.20
2019-04-14T13:49:25.229Z,6.10
2019-04-14T13:51:58.177Z,6.20
2019-04-14T13:54:31.090Z,6.30
2019-04-14T13:57:03.930Z,6.20
2019-04-14T13:59:36.862Z,6.20
2019-04-14T14:02:10.031Z,6.20
2019-04-14T14:04:43.116Z,6.20
2019-04-14T14:07:16.029Z,6.30
2019-04-14T14:09:49.074Z,6.20
2019-04-14T14:12:32.363Z,6.10
2019-04-14T14:15:12.997Z,6.10
2019-04-14T14:17:47.609Z,6.20
2019-04-14T14:20:26.973Z,6.10
2019-04-14T14:23:17.489Z,6.10
2019-04-14T14:25:53.396Z,6.10
2019-04-14T14:28:26.308Z,6.10
2019-04-14T14:30:59.291Z,6.00
2019-04-14T14:33:32.628Z,6.00
2019-04-14T14:36:06.097Z,6.10
2019-04-14T14:38:39.033Z,6.10
2019-04-14T14:41:13.528Z,6.10
2019-04-14T14:43:46.349Z,6.10
2019-04-14T14:46:28.405Z,6.10
2019-04-14T14:49:05.857Z,6.20
2019-04-14T14:51:49.166Z,6.20
2019-04-14T14:54:22.036Z,6.10
2019-04-14T14:56:54.976Z,6.00
2019-04-14T14:59:27.871Z,6.00
2019-04-14T15:02:00.672Z,6.10
2019-04-14T15:04:33.610Z,6.10
2019-04-14T15:07:06.671Z,6.10
2019-04-14T15:09:39.868Z,6.10
2019-04-14T15:12:12.809Z,6.10
2019-04-14T15:14:45.776Z,6.10
2019-04-14T15:17:19.211Z,6.20
2019-04-14T15:19:52.170Z,6.20
2019-04-14T15:22:25.271Z,6.10
2019-04-14T15:24:58.229Z,6.10
2019-04-14T15:27:31.288Z,6.20
2019-04-14T15:30:05.493Z,6.20
2019-04-14T15:32:38.396Z,6.30
2019-04-14T15:35:11.389Z,6.30
2019-04-14T15:37:44.289Z,6.20
2019-04-14T15:40:17.130Z,6.20
2019-04-14T15:42:50.233Z,6.20
2019-04-14T15:45:23.278Z,6.10
2019-04-14T15:47:56.717Z,6.10
2019-04-14T15:50:29.649Z,6.20
2019-04-14T15:53:02.746Z,6.10
2019-04-14T15:55:37.730Z,6.00
2019-04-14T15:58:18.209Z,6.00
2019-04-14T16:01:08.904Z,6.10
2019-04-14T16:03:43.398Z,6.20
2019-04-14T16:06:16.228Z,6.20
2019-04-14T16:09:07.350Z,6.20
2019-04-14T16:11:44.509Z,6.30
2019-04-14T16:14:27.937Z,6.30
2019-04-14T16:17:18.808Z,6.20
2019-04-14T16:19:59.312Z,6.20
2019-04-14T16:22:32.870Z,6.20
2019-04-14T16:25:05.870Z,6.10
2019-04-14T16:27:46.489Z,6.10
2019-04-14T16:30:26.968Z,6.20
2019-04-14T16:33:13.969Z,6.20
2019-04-14T16:35:48.571Z,6.20
2019-04-14T16:38:22.649Z,6.20
2019-04-14T16:40:55.609Z,6.10
2019-04-14T16:43:28.570Z,6.00
2019-04-14T16:46:01.609Z,6.00
2019-04-14T16:48:34.943Z,6.00
2019-04-14T16:51:09.489Z,5.90
2019-04-14T16:53:44.237Z,6.00
2019-04-14T16:56:35.030Z,6.00
2019-04-14T16:59:09.189Z,6.00
2019-04-14T17:01:43.977Z,6.00
2019-04-14T17:04:16.768Z,5.90
2019-04-14T17:06:49.649Z,5.80
2019-04-14T17:09:23.369Z,5.80
2019-04-14T17:11:59.216Z,5.80
2019-04-14T17:14:32.588Z,5.90
2019-04-14T17:17:07.057Z,5.90
2019-04-14T17:19:50.709Z,5.80
2019-04-14T17:22:27.969Z,5.80
2019-04-14T17:25:02.356Z,5.90
2019-04-14T17:27:49.148Z,5.80
2019-04-14T17:30:39.831Z,5.80
2019-04-14T17:33:23.549Z,5.90
2019-04-14T17:36:07.088Z,5.80
2019-04-14T17:38:39.757Z,5.80
2019-04-14T17:41:14.426Z,5.90
2019-04-14T17:43:49.349Z,5.80
2019-04-14T17:46:40.089Z,5.90
2019-04-14T17:49:23.848Z,5.90
2019-04-14T17:52:14.230Z,5.90
2019-04-14T17:54:48.910Z,5.90
2019-04-14T17:57:39.389Z,5.90
2019-04-14T18:00:13.889Z,5.80
2019-04-14T18:02:48.441Z,5.80
2019-04-14T18:05:35.190Z,5.80
2019-04-14T18:08:09.916Z,5.90
2019-04-14T18:10:47.708Z,5.80
2019-04-14T18:13:38.069Z,5.80
2019-04-14T18:16:12.634Z,5.90
2019-04-14T18:18:47.277Z,5.70
2019-04-14T18:21:20.637Z,5.70
2019-04-14T18:23:53.909Z,5.70
2019-04-14T18:26:27.828Z,5.80
2019-04-14T18:29:18.757Z,5.80
2019-04-14T18:31:59.408Z,5.80
2019-04-14T18:34:35.269Z,5.90
2019-04-14T18:37:11.068Z,5.90
2019-04-14T18:39:45.810Z,6.00
2019-04-14T18:42:20.348Z,5.90
2019-04-14T18:45:08.109Z,5.80
2019-04-14T18:47:52.709Z,5.80
2019-04-14T18:50:45.491Z,5.90
2019-04-14T18:53:19.915Z,5.90
2019-04-14T18:56:06.180Z,5.80
2019-04-14T18:58:43.448Z,5.60
2019-04-14T19:01:17.988Z,5.60
2019-04-14T19:03:51.311Z,5.80
2019-04-14T19:06:24.677Z,5.80
2019-04-14T19:08:57.909Z,5.60
2019-04-14T19:11:47.369Z,5.40
2019-04-14T19:14:37.317Z,5.30
2019-04-14T19:17:30.068Z,5.50
2019-04-14T19:20:02.975Z,5.70
2019-04-14T19:22:35.931Z,5.80
2019-04-14T19:25:09.030Z,5.70
2019-04-14T19:27:41.890Z,5.80
2019-04-14T19:30:14.737Z,6.00
2019-04-14T19:32:47.616Z,5.90
2019-04-14T19:35:21.128Z,5.80
2019-04-14T19:37:54.056Z,5.80
2019-04-14T19:40:27.108Z,5.90
2019-04-14T19:43:00.268Z,5.80
2019-04-14T19:45:34.588Z,5.80
2019-04-14T19:48:08.363Z,5.80
2019-04-14T19:50:41.630Z,5.90
2019-04-14T19:53:14.548Z,5.90
2019-04-14T19:55:47.510Z,5.90
2019-04-14T19:58:20.768Z,5.70
2019-04-14T20:00:53.789Z,5.60
2019-04-14T20:03:26.789Z,5.50
2019-04-14T20:06:00.088Z,5.40
2019-04-14T20:08:33.117Z,5.30
2019-04-14T20:11:06.008Z,5.10
2019-04-14T20:13:43.509Z,5.10
2019-04-14T20:16:22.769Z,5.00
2019-04-14T20:18:55.660Z,4.90
2019-04-14T20:21:34.328Z,4.90
2019-04-14T20:24:12.129Z,4.90
2019-04-14T20:27:03.013Z,4.80
2019-04-14T20:29:37.648Z,4.80
2019-04-14T20:32:12.219Z,4.70
2019-04-14T20:34:45.354Z,4.70
2019-04-14T20:37:18.271Z,4.70
2019-04-14T20:39:51.092Z,4.70
2019-04-14T20:42:24.570Z,4.70
2019-04-14T20:44:57.611Z,4.60
2019-04-14T20:47:30.490Z,4.60
2019-04-14T20:50:03.309Z,4.60
2019-04-14T20:52:36.468Z,4.60
2019-04-14T20:55:10.508Z,4.60
2019-04-14T20:57:43.771Z,4.60
2019-04-14T21:00:17.248Z,4.60
2019-04-14T21:02:54.769Z,4.60
2019-04-14T21:05:39.548Z,4.60
2019-04-14T21:08:23.028Z,4.50
2019-04-14T21:11:09.817Z,4.40
2019-04-14T21:13:47.768Z,4.40
2019-04-14T21:16:24.949Z,4.40
2019-04-14T21:18:59.471Z,4.40
2019-04-14T21:21:41.689Z,4.40
2019-04-14T21:24:16.188Z,4.30
2019-04-14T21:26:50.909Z,4.30
2019-04-14T21:29:41.328Z,4.30
2019-04-14T21:32:34.209Z,4.30
2019-04-14T21:35:24.648Z,4.30
2019-04-14T21:37:59.229Z,4.20
2019-04-14T21:40:33.829Z,4.20
2019-04-14T21:43:06.808Z,4.20
2019-04-14T21:45:40.109Z,4.20
2019-04-14T21:48:13.028Z,4.30
2019-04-14T21:50:46.389Z,4.40
2019-04-14T21:53:19.288Z,4.60
2019-04-14T21:55:52.417Z,4.60
2019-04-14T21:58:34.182Z,4.70
2019-04-14T22:01:24.734Z,4.80
2019-04-14T22:03:59.109Z,4.80
2019-04-14T22:06:39.669Z,4.80
2019-04-14T22:09:14.309Z,4.80
2019-04-14T22:11:47.228Z,4.90
2019-04-14T22:14:21.089Z,4.80
2019-04-14T22:16:54.069Z,4.80
2019-04-14T22:19:27.029Z,4.70
2019-04-14T22:22:00.160Z,4.70
2019-04-14T22:24:33.596Z,4.70
2019-04-14T22:27:06.549Z,4.70
2019-04-14T22:29:39.790Z,4.80
2019-04-14T22:32:12.839Z,4.80
2019-04-14T22:34:46.451Z,4.70
2019-04-14T22:37:19.608Z,4.70
2019-04-14T22:39:54.969Z,4.80
2019-04-14T22:42:27.851Z,4.80
2019-04-14T22:45:01.068Z,4.80
2019-04-14T22:47:34.468Z,4.80
2019-04-14T22:50:07.637Z,4.70
2019-04-14T22:52:40.668Z,4.70
2019-04-14T22:55:13.749Z,4.60
2019-04-14T22:57:46.869Z,4.70
2019-04-14T23:00:27.709Z,4.70
2019-04-14T23:03:02.190Z,4.60
2019-04-14T23:05:55.068Z,4.50
2019-04-14T23:08:28.089Z,4.50
2019-04-14T23:11:09.148Z,4.60
2019-04-14T23:13:44.049Z,4.50
2019-04-14T23:16:16.629Z,4.50
2019-04-14T23:19:02.893Z,4.60
2019-04-14T23:21:37.272Z,4.60
2019-04-14T23:24:11.768Z,4.60
2019-04-14T23:26:52.559Z,4.60
2019-04-14T23:29:19.669Z,4.50
2019-04-14T23:31:53.269Z,4.50
2019-04-14T23:34:26.237Z,4.70
2019-04-14T23:36:59.489Z,4.70
2019-04-14T23:39:33.112Z,4.70
2019-04-14T23:42:06.149Z,4.70
2019-04-14T23:44:39.348Z,4.70
2019-04-14T23:47:12.309Z,4.70
2019-04-14T23:49:45.230Z,4.80
2019-04-14T23:52:18.872Z,4.80
2019-04-14T23:54:52.212Z,4.70
2019-04-14T23:57:25.229Z,4.70
2019-04-14T23:59:58.219Z,4.70
